Time;durP1;ratioP1;P1;durP2;ratioP2;P2;SDS_P1;SDS_P2;PMS_P1;PMS_P2;Temp;Humidity;BMP_temperature;BMP_pressure;BME280_temperature;BME280_humidity;BME280_pressure;Samples;Min_cycle;Max_cycle;Signal;HPM_P1;HPM_P2
2022/09/10 00:01:28;;;;;;;27.95;15.32;;;;;;;13.11;100.00;100822.03;5094979;28;20035;-44
2022/09/10 00:03:54;;;;;;;28.02;17.50;;;;;;;13.13;100.00;100820.34;5094873;28;20115;-49
2022/09/10 00:06:23;;;;;;;31.40;17.77;;;;;;;13.15;100.00;100821.22;5094852;28;20028;-44
2022/09/10 00:08:49;;;;;;;22.85;13.40;;;;;;;13.18;100.00;100823.00;5095301;28;20031;-43
2022/09/10 00:11:14;;;;;;;143.45;110.78;;;;;;;13.22;100.00;100821.34;5094485;28;20032;-44
2022/09/10 00:13:40;;;;;;;33.58;20.13;;;;;;;13.22;100.00;100823.94;5094754;28;20028;-46
2022/09/10 00:16:08;;;;;;;26.58;13.98;;;;;;;13.23;100.00;100817.91;5095098;28;20024;-45
2022/09/10 00:18:35;;;;;;;23.23;12.27;;;;;;;13.24;100.00;100814.50;5097853;28;20043;-45
2022/09/10 00:21:05;;;;;;;23.15;11.73;;;;;;;13.25;100.00;100808.47;5094774;28;20036;-44
2022/09/10 00:23:31;;;;;;;36.67;23.27;;;;;;;13.24;100.00;100810.19;5094253;28;20039;-44
2022/09/10 00:25:56;;;;;;;41.92;26.02;;;;;;;13.24;100.00;100811.91;5094777;28;20024;-44
2022/09/10 00:28:25;;;;;;;26.20;14.35;;;;;;;13.23;100.00;100804.97;5094421;28;20103;-44
2022/09/10 00:30:53;;;;;;;30.17;18.40;;;;;;;13.19;100.00;100809.22;5094379;28;20024;-45
2022/09/10 00:33:19;;;;;;;;;;;;;;;13.24;100.00;100809.31;5095098;28;20020;-44
2022/09/10 00:35:45;;;;;;;44.53;25.90;;;;;;;13.21;100.00;100811.84;5094574;28;19919;-44
2022/09/10 00:38:11;;;;;;;29.05;18.52;;;;;;;13.21;100.00;100819.59;5093943;28;20028;-44
2022/09/10 00:40:38;;;;;;;26.88;13.93;;;;;;;13.20;100.00;100820.47;5094346;28;20430;-44
2022/09/10 00:43:10;;;;;;;53.88;30.98;;;;;;;13.17;100.00;100816.97;5094067;28;20044;-48
2022/09/10 00:45:36;;;;;;;27.55;14.45;;;;;;;13.15;100.00;100810.03;5093949;28;20551;-43
2022/09/10 00:48:05;;;;;;;32.22;16.60;;;;;;;13.16;100.00;100809.19;5094266;28;20077;-44
2022/09/10 00:50:34;;;;;;;26.55;14.57;;;;;;;13.14;100.00;100814.34;5094256;28;20051;-47
2022/09/10 00:53:03;;;;;;;20.88;12.30;;;;;;;13.13;100.00;100812.59;5093789;28;20417;-46
2022/09/10 00:55:30;;;;;;;25.52;14.10;;;;;;;13.13;100.00;100810.00;5093916;28;20025;-46
2022/09/10 00:57:59;;;;;;;27.77;14.83;;;;;;;13.10;100.00;100815.09;5093988;28;20055;-45
2022/09/10 01:00:24;;;;;;;27.70;15.23;;;;;;;13.13;100.00;100803.94;5093531;28;20024;-48
2022/09/10 01:02:50;;;;;;;22.42;12.43;;;;;;;13.12;100.00;100805.66;5094140;28;20016;-44
2022/09/10 01:05:17;;;;;;;26.92;15.02;;;;;;;13.14;100.00;100816.91;5093951;28;20028;-46
2022/09/10 01:07:43;;;;;;;27.92;14.85;;;;;;;13.13;100.00;100817.75;5093612;28;20082;-45
2022/09/10 01:10:16;;;;;;;23.20;13.27;;;;;;;13.13;100.00;100817.75;5093526;28;20028;-44
2022/09/10 01:13:01;;;;;;;25.83;13.50;;;;;;;13.15;100.00;100826.41;5093549;28;20078;-44
2022/09/10 01:15:44;;;;;;;34.95;13.82;;;;;;;13.17;100.00;100818.69;5093853;28;20104;-45
2022/09/10 01:18:38;;;;;;;23.20;12.80;;;;;;;13.19;100.00;100829.94;5093979;28;20103;-44
2022/09/10 01:21:13;;;;;;;21.52;13.13;;;;;;;13.21;100.00;100822.19;5093291;28;20020;-50
2022/09/10 01:24:17;;;;;;;23.42;14.88;;;;;;;13.21;100.00;100820.50;5093492;28;20081;-47
2022/09/10 01:26:48;;;;;;;20.38;13.18;;;;;;;13.21;100.00;100817.00;5089979;28;20032;-44
2022/09/10 01:29:17;;;;;;;23.02;13.70;;;;;;;13.24;100.00;100819.66;5093419;28;20406;-45
2022/09/10 01:32:05;;;;;;;28.67;14.07;;;;;;;13.26;100.00;100825.72;5093509;28;20051;-46
2022/09/10 01:34:46;;;;;;;22.70;13.25;;;;;;;13.27;100.00;100824.91;5093008;28;20056;-47
2022/09/10 01:37:23;;;;;;;22.98;13.85;;;;;;;13.28;100.00;100822.31;5093295;28;20092;-47
2022/09/10 01:39:51;;;;;;;24.33;15.15;;;;;;;13.31;100.00;100821.50;5093279;28;20544;-44
2022/09/10 01:42:17;;;;;;;27.23;15.30;;;;;;;13.30;100.00;100822.38;5092701;28;20055;-44
2022/09/10 01:44:48;;;;;;;28.05;15.38;;;;;;;13.30;100.00;100822.38;5093053;28;20043;-46
2022/09/10 01:47:26;;;;;;;25.33;15.88;;;;;;;13.31;100.00;100830.16;5093247;28;20024;-48
2022/09/10 01:50:02;;;;;;;28.85;15.70;;;;;;;13.34;100.00;100829.34;5092771;28;20028;-44
2022/09/10 01:52:50;;;;;;;26.38;16.17;;;;;;;13.34;100.00;100824.16;5092964;28;20475;-44
2022/09/10 01:55:33;;;;;;;29.20;16.92;;;;;;;13.36;100.00;100817.28;5092612;28;20016;-44
2022/09/10 01:58:11;;;;;;;31.77;17.75;;;;;;;13.36;100.00;100822.47;5093198;28;20036;-47
2022/09/10 02:00:44;;;;;;;37.00;17.40;;;;;;;13.39;100.00;100819.97;5093008;28;20047;-45
2022/09/10 02:03:18;;;;;;;29.15;17.42;;;;;;;13.38;100.00;100813.06;5092639;28;20056;-44
2022/09/10 02:05:48;;;;;;;33.30;17.70;;;;;;;13.39;100.00;100814.81;5093047;28;20031;-45
2022/09/10 02:08:19;;;;;;;31.08;18.23;;;;;;;13.40;100.00;100811.38;5092534;28;20032;-45
2022/09/10 02:11:04;;;;;;;28.80;18.58;;;;;;;13.40;100.00;100813.06;5092670;28;20020;-45
2022/09/10 02:13:33;;;;;;;30.45;19.23;;;;;;;13.43;100.00;100814.00;5092878;28;20020;-48
2022/09/10 02:15:59;;;;;;;30.80;19.55;;;;;;;13.45;100.00;100817.50;5092478;28;20032;-46
2022/09/10 02:18:25;;;;;;;35.90;18.63;;;;;;;13.46;100.00;100808.88;5093712;28;20499;-47
2022/09/10 02:20:57;;;;;;;31.20;18.73;;;;;;;13.46;100.00;100808.88;5094421;28;20049;-47
2022/09/10 02:23:30;;;;;;;29.08;18.67;;;;;;;13.46;100.00;100808.88;5092146;28;20412;-47
2022/09/10 02:25:56;;;;;;;30.17;18.75;;;;;;;13.48;100.00;100806.34;5093123;28;20032;-44
2022/09/10 02:28:21;;;;;;;33.90;19.88;;;;;;;13.49;100.00;100803.75;5092523;28;20027;-45
2022/09/10 02:30:47;;;;;;;31.10;19.88;;;;;;;13.50;100.00;100802.03;5092305;28;20024;-46
2022/09/10 02:33:15;;;;;;;36.03;19.90;;;;;;;13.50;100.00;100800.34;5092622;28;20055;-44
2022/09/10 02:35:41;;;;;;;37.58;20.05;;;;;;;13.52;100.00;100794.28;5092377;28;20031;-48
2022/09/10 02:38:07;;;;;;;34.20;20.60;;;;;;;13.52;100.00;100796.88;5092380;28;20044;-44
2022/09/10 02:40:32;;;;;;;33.63;20.10;;;;;;;13.53;100.00;100788.25;5092626;28;20365;-50
2022/09/10 02:42:58;;;;;;;33.00;20.60;;;;;;;13.54;100.00;100795.19;5092523;28;20027;-45
2022/09/10 02:45:24;;;;;;;37.22;21.42;;;;;;;13.56;100.00;100801.28;5091641;28;20040;-44
2022/09/10 02:47:49;;;;;;;33.63;21.17;;;;;;;13.56;100.00;100793.50;5092410;28;20036;-44
2022/09/10 02:50:15;;;;;;;33.13;20.83;;;;;;;13.57;100.00;100797.81;5092468;28;20048;-49
2022/09/10 02:52:40;;;;;;;33.63;21.48;;;;;;;13.59;100.00;100797.00;5092134;28;20027;-44
2022/09/10 02:55:07;;;;;;;36.67;21.35;;;;;;;13.60;100.00;100792.72;5092388;28;20437;-44
2022/09/10 02:57:32;;;;;;;33.38;21.83;;;;;;;13.62;100.00;100798.75;5092545;28;20032;-44
2022/09/10 02:59:58;;;;;;;35.00;22.10;;;;;;;13.63;100.00;100803.09;5092131;28;20054;-48
2022/09/10 03:02:23;;;;;;;31.27;20.42;;;;;;;13.63;100.00;100796.22;5092139;28;20407;-47
2022/09/10 03:04:48;;;;;;;36.15;21.80;;;;;;;13.64;100.00;100797.94;5092565;28;20027;-47
2022/09/10 03:07:19;;;;;;;38.55;21.75;;;;;;;13.65;100.00;100798.84;5091718;28;20060;-45
2022/09/10 03:09:48;;;;;;;34.95;21.90;;;;;;;13.66;100.00;100805.75;5092539;28;20049;-44
2022/09/10 03:12:16;;;;;;;32.60;21.15;;;;;;;13.67;100.00;100797.13;5091691;28;20456;-44
2022/09/10 03:14:42;;;;;;;36.05;21.60;;;;;;;13.68;100.00;100798.88;5092445;28;20555;-44
2022/09/10 03:17:08;;;;;;;34.00;21.48;;;;;;;13.70;100.00;100799.78;5091850;28;20115;-44
2022/09/10 03:19:34;;;;;;;34.40;21.90;;;;;;;13.70;100.00;100806.66;5091935;28;20061;-45
2022/09/10 03:21:59;;;;;;;40.53;22.63;;;;;;;13.70;100.00;100798.88;5096246;28;20056;-47
2022/09/10 03:24:25;;;;;;;37.50;22.27;;;;;;;13.73;100.00;100798.97;5095869;28;20058;-44
2022/09/10 03:26:50;;;;;;;34.78;22.38;;;;;;;13.71;100.00;100803.22;5095692;28;20052;-45
2022/09/10 03:29:16;;;;;;;34.58;21.13;;;;;;;13.72;100.00;100800.66;5095825;28;20017;-45
2022/09/10 03:31:41;;;;;;;37.67;22.13;;;;;;;13.73;100.00;100797.22;5095616;28;20111;-44
2022/09/10 03:34:09;;;;;;;39.22;23.95;;;;;;;13.73;100.00;100807.59;5095160;28;20031;-44
2022/09/10 03:36:34;;;;;;;34.33;21.45;;;;;;;13.73;100.00;100792.03;5095835;28;20043;-45
2022/09/10 03:38:59;;;;;;;37.80;23.63;;;;;;;13.74;100.00;100800.72;5095701;28;20023;-46
2022/09/10 03:41:27;;;;;;;39.22;24.73;;;;;;;13.73;100.00;100799.81;5095105;28;20024;-44
2022/09/10 03:43:53;;;;;;;35.95;23.30;;;;;;;13.73;100.00;100792.03;5095313;28;20114;-43
2022/09/10 03:46:19;;;;;;;35.80;24.17;;;;;;;13.75;100.00;100787.78;5095314;28;20529;-48
2022/09/10 03:48:44;;;;;;;38.25;24.42;;;;;;;13.74;100.00;100793.78;5095295;28;20063;-44
2022/09/10 03:51:10;;;;;;;37.88;24.63;;;;;;;13.74;100.00;100796.38;5095292;28;20103;-47
2022/09/10 03:53:37;;;;;;;40.08;25.10;;;;;;;13.73;100.00;100792.03;5095358;28;20036;-44
2022/09/10 03:56:02;;;;;;;38.95;25.58;;;;;;;13.74;100.00;100787.75;5094720;28;20024;-47
2022/09/10 03:58:28;;;;;;;43.15;26.60;;;;;;;13.74;100.00;100788.63;5095141;28;20024;-43
2022/09/10 04:00:53;;;;;;;38.85;26.20;;;;;;;13.75;100.00;100795.53;5095322;28;20077;-46
2022/09/10 04:03:19;;;;;;;41.10;26.35;;;;;;;13.76;100.00;100791.22;5094692;28;20024;-48
2022/09/10 04:05:44;;;;;;;38.88;26.65;;;;;;;13.75;100.00;100785.19;5095043;28;20020;-45
2022/09/10 04:08:11;;;;;;;40.90;26.73;;;;;;;13.76;100.00;100784.34;5095123;28;20111;-43
2022/09/10 04:10:37;;;;;;;43.17;27.52;;;;;;;13.76;100.00;100780.88;5094619;28;20055;-43
2022/09/10 04:13:02;;;;;;;41.47;27.52;;;;;;;13.77;100.00;100778.28;5094751;28;20028;-46
2022/09/10 04:15:27;;;;;;;48.08;28.15;;;;;;;13.78;100.00;100784.34;5094440;28;20069;-44
2022/09/10 04:17:53;;;;;;;41.22;28.23;;;;;;;13.79;100.00;100786.09;5095211;28;20464;-45
2022/09/10 04:20:20;;;;;;;43.20;28.83;;;;;;;13.78;100.00;100780.03;5097639;28;20044;-46
2022/09/10 04:22:47;;;;;;;41.33;28.63;;;;;;;13.78;100.00;100780.03;5094795;28;20070;-44
2022/09/10 04:25:14;;;;;;;40.80;28.23;;;;;;;13.78;100.00;100779.19;5094853;28;20024;-46
2022/09/10 04:27:40;;;;;;;40.97;28.77;;;;;;;13.79;100.00;100776.59;5094497;28;20036;-48
2022/09/10 04:30:07;;;;;;;46.17;27.75;;;;;;;13.80;100.00;100783.53;5094034;28;20107;-44
2022/09/10 04:32:32;;;;;;;42.30;28.52;;;;;;;13.79;100.00;100776.59;5093688;28;20481;-45
2022/09/10 04:34:57;;;;;;;42.55;28.33;;;;;;;13.81;100.00;100784.41;5094716;28;20042;-46
2022/09/10 04:37:23;;;;;;;43.20;27.45;;;;;;;13.80;100.00;100778.34;5093905;28;20039;-44
2022/09/10 04:39:49;;;;;;;42.33;28.38;;;;;;;13.81;100.00;100784.41;5094649;28;20032;-45
2022/09/10 04:42:17;;;;;;;41.28;27.67;;;;;;;13.80;100.00;100780.94;5094276;28;20016;-45
2022/09/10 04:44:43;;;;;;;40.67;27.40;;;;;;;13.81;100.00;100789.56;5093760;28;20483;-44
2022/09/10 04:47:08;;;;;;;45.70;28.33;;;;;;;13.81;100.00;100790.47;5094239;28;20103;-44
2022/09/10 04:49:33;;;;;;;42.67;28.23;;;;;;;13.83;100.00;100791.34;5094528;28;20020;-45
2022/09/10 04:51:58;;;;;;;45.35;27.83;;;;;;;13.83;100.00;100791.34;5093914;28;20024;-47
2022/09/10 04:54:24;;;;;;;38.38;28.05;;;;;;;13.83;100.00;100787.88;5093875;28;20486;-47
2022/09/10 04:56:51;;;;;;;39.25;28.63;;;;;;;13.82;100.00;100792.19;5094145;28;20039;-44
2022/09/10 04:59:16;;;;;;;41.78;28.35;;;;;;;13.83;100.00;100788.75;5093350;28;20020;-44
2022/09/10 05:01:41;;;;;;;43.90;27.98;;;;;;;13.84;100.00;100789.63;5094121;28;20028;-49
2022/09/10 05:04:06;;;;;;;48.13;30.17;;;;;;;13.85;100.00;100785.31;5094052;28;20383;-48
2022/09/10 05:06:32;;;;;;;40.30;27.58;;;;;;;13.84;100.00;100784.47;5093545;28;20031;-46
2022/09/10 05:08:57;;;;;;;44.33;28.92;;;;;;;13.85;100.00;100782.72;5093891;28;20455;-44
2022/09/10 05:11:24;;;;;;;45.90;28.70;;;;;;;13.84;100.00;100784.47;5093675;28;20035;-49
2022/09/10 05:13:49;;;;;;;51.87;29.77;;;;;;;13.87;100.00;100783.63;5093340;28;20027;-45
2022/09/10 05:16:15;;;;;;;44.05;28.83;;;;;;;13.87;100.00;100778.44;5093423;28;20032;-43
2022/09/10 05:18:40;;;;;;;44.55;29.17;;;;;;;13.87;100.00;100783.63;5093300;28;20055;-44
2022/09/10 05:21:06;;;;;;;44.08;28.25;;;;;;;13.86;100.00;100785.34;5093764;28;20020;-46
2022/09/10 05:23:31;;;;;;;43.05;29.15;;;;;;;13.88;100.00;100787.94;5093858;28;20081;-44
2022/09/10 05:25:57;;;;;;;45.65;30.80;;;;;;;13.88;100.00;100785.34;5093138;28;20032;-44
2022/09/10 05:28:23;;;;;;;47.50;29.25;;;;;;;13.90;100.00;100794.03;5093408;28;20031;-46
2022/09/10 05:30:49;;;;;;;41.25;29.77;;;;;;;13.88;100.00;100791.41;5093641;28;20091;-49
2022/09/10 05:33:15;;;;;;;45.00;29.45;;;;;;;13.91;100.00;100791.47;5093003;28;20483;-45
2022/09/10 05:35:40;;;;;;;47.53;30.08;;;;;;;13.92;100.00;100792.34;5093266;28;20028;-44
2022/09/10 05:38:07;;;;;;;44.63;29.45;;;;;;;13.92;100.00;100793.22;5093212;28;20070;-44
2022/09/10 05:40:32;;;;;;;42.97;30.30;;;;;;;13.93;100.00;100784.59;5092920;28;20024;-46
2022/09/10 05:42:59;;;;;;;46.10;30.20;;;;;;;13.95;100.00;100792.38;5093241;28;20376;-43
2022/09/10 05:45:24;;;;;;;48.67;32.20;;;;;;;13.95;100.00;100793.25;5092731;28;20501;-44
2022/09/10 05:47:50;;;;;;;43.70;30.55;;;;;;;13.95;100.00;100782.88;5093146;28;20111;-44
2022/09/10 05:50:16;;;;;;;48.28;30.65;;;;;;;13.97;100.00;100777.75;5093016;28;20532;-44
2022/09/10 05:52:42;;;;;;;50.15;29.90;;;;;;;13.97;100.00;100782.94;5093435;28;20056;-44
2022/09/10 05:55:08;;;;;;;48.60;31.77;;;;;;;14.00;100.00;100791.59;5092625;28;20047;-44
2022/09/10 05:57:34;;;;;;;47.58;31.00;;;;;;;14.00;100.00;100786.41;5092735;28;20028;-45
2022/09/10 06:00:00;;;;;;;46.22;31.25;;;;;;;14.03;100.00;100790.75;5093399;28;20024;-45
2022/09/10 06:02:25;;;;;;;49.22;32.70;;;;;;;14.04;100.00;100791.66;5092557;28;20016;-44
2022/09/10 06:04:51;;;;;;;46.75;32.08;;;;;;;14.05;100.00;100789.06;5093076;28;20028;-48
2022/09/10 06:07:16;;;;;;;49.97;31.50;;;;;;;14.09;100.00;100796.03;5092942;28;20027;-44
2022/09/10 06:09:42;;;;;;;48.50;32.88;;;;;;;14.08;100.00;100791.69;5092579;28;20460;-44
2022/09/10 06:12:07;;;;;;;44.17;31.02;;;;;;;14.11;100.00;100793.47;5092626;28;20360;-45
2022/09/10 06:14:33;;;;;;;51.38;32.10;;;;;;;14.16;100.00;100790.09;5093184;28;20111;-44
2022/09/10 06:16:58;;;;;;;47.33;32.97;;;;;;;14.21;100.00;100794.47;5092776;28;20425;-44
2022/09/10 06:19:23;;;;;;;47.85;32.17;;;;;;;14.21;100.00;100799.66;5092681;28;20062;-45
2022/09/10 06:21:51;;;;;;;45.88;31.52;;;;;;;14.23;100.00;100800.53;5095571;28;20056;-48
2022/09/10 06:24:17;;;;;;;43.05;29.70;;;;;;;14.21;100.00;100803.09;5092532;28;20117;-44
2022/09/10 06:26:42;;;;;;;39.30;29.95;;;;;;;14.20;100.00;100801.34;5092633;28;20039;-44
2022/09/10 06:29:08;;;;;;;41.42;28.75;;;;;;;14.18;100.00;100808.25;5092090;28;20013;-45
2022/09/10 06:31:33;;;;;;;40.22;28.73;;;;;;;14.18;100.00;100804.78;5092914;28;20028;-45
2022/09/10 06:34:00;;;;;;;38.85;28.00;;;;;;;14.15;100.00;100801.31;5092714;28;20016;-43
2022/09/10 06:36:27;;;;;;;37.40;28.25;;;;;;;14.15;100.00;100801.31;5092132;28;20593;-45
2022/09/10 06:38:54;;;;;;;38.83;28.65;;;;;;;14.16;100.00;100810.84;5092833;28;20053;-44
2022/09/10 06:41:19;;;;;;;44.67;31.50;;;;;;;14.18;100.00;100805.66;5092183;28;20474;-47
2022/09/10 06:43:45;;;;;;;47.28;32.38;;;;;;;14.16;100.00;100810.84;5092160;28;20044;-43
2022/09/10 06:46:15;;;;;;;40.17;31.45;;;;;;;14.14;100.00;100812.53;5092795;28;20020;-47
2022/09/10 06:48:41;;;;;;;39.05;30.98;;;;;;;14.16;100.00;100821.22;5092740;28;20031;-49
2022/09/10 06:51:08;;;;;;;44.67;32.33;;;;;;;14.14;100.00;100812.53;5095092;28;20123;-44
2022/09/10 06:53:36;;;;;;;43.95;32.92;;;;;;;14.16;100.00;100812.53;5092281;28;20047;-46
2022/09/10 06:56:02;;;;;;;41.78;32.45;;;;;;;14.14;100.00;100809.94;5094744;28;20070;-44
2022/09/10 06:58:30;;;;;;;43.38;32.55;;;;;;;14.15;100.00;100815.97;5096071;28;20024;-44
2022/09/10 07:00:55;;;;;;;;;;;;;;;14.21;100.00;100808.28;5096868;28;20031;-44
2022/09/10 07:03:21;;;;;;;41.33;34.15;;;;;;;14.23;100.00;100816.09;5096333;28;19912;-44
2022/09/10 07:05:47;;;;;;;44.88;33.85;;;;;;;14.21;100.00;100810.03;5095869;28;20028;-43
2022/09/10 07:08:14;;;;;;;41.65;32.17;;;;;;;14.24;100.00;100812.66;5099017;28;20479;-45
2022/09/10 07:10:41;;;;;;;42.53;32.63;;;;;;;14.26;100.00;100813.56;5096192;28;20024;-46
2022/09/10 07:13:06;;;;;;;40.83;32.72;;;;;;;14.26;100.00;100816.16;5095562;28;20032;-44
2022/09/10 07:15:32;;;;;;;39.92;32.10;;;;;;;14.28;100.00;100820.50;5096077;28;20027;-44
2022/09/10 07:17:59;;;;;;;44.03;32.40;;;;;;;14.28;100.00;100819.63;5096225;28;20032;-45
2022/09/10 07:20:25;;;;;;;42.60;32.75;;;;;;;14.28;100.00;100827.38;5095365;28;20465;-46
2022/09/10 07:22:59;;;;;;;40.10;29.85;;;;;;;14.29;100.00;100831.72;5095913;28;20114;-44
2022/09/10 07:25:25;;;;;;;35.83;29.23;;;;;;;14.28;100.00;100828.28;5095227;28;20456;-43
2022/09/10 07:27:51;;;;;;;35.85;29.50;;;;;;;14.27;100.00;100823.94;5096138;28;20047;-45
2022/09/10 07:30:17;;;;;;;34.85;29.58;;;;;;;14.29;100.00;100829.13;5095498;28;20020;-45
2022/09/10 07:32:42;;;;;;;35.88;29.15;;;;;;;14.30;100.00;100830.88;5095370;28;20085;-46
2022/09/10 07:35:08;;;;;;;37.42;30.50;;;;;;;14.31;100.00;100833.50;5095777;28;20020;-49
2022/09/10 07:37:34;;;;;;;36.00;29.70;;;;;;;14.32;100.00;100829.19;5095320;28;20039;-48
2022/09/10 07:39:59;;;;;;;36.63;30.30;;;;;;;14.37;100.00;100829.25;5095481;28;20035;-47
2022/09/10 07:42:25;;;;;;;36.90;31.55;;;;;;;14.38;100.00;100828.41;5095346;28;20099;-48
2022/09/10 07:44:50;;;;;;;38.58;32.03;;;;;;;14.36;100.00;100823.19;5095587;28;20403;-44
2022/09/10 07:47:16;;;;;;;40.58;33.33;;;;;;;14.39;100.00;100831.00;5095080;28;20384;-49
2022/09/10 07:49:43;;;;;;;37.47;33.50;;;;;;;14.40;100.00;100837.94;5095334;28;20391;-46
2022/09/10 07:52:10;;;;;;;40.72;34.58;;;;;;;14.43;100.00;100843.16;5095414;28;20031;-44
2022/09/10 07:54:35;;;;;;;38.83;34.72;;;;;;;14.43;100.00;100845.75;5095091;28;20039;-46
2022/09/10 07:57:00;;;;;;;39.05;34.60;;;;;;;14.45;100.00;100843.19;5094938;28;20036;-48
2022/09/10 07:59:26;;;;;;;41.25;35.80;;;;;;;14.47;100.00;100849.25;5095424;28;20487;-50
2022/09/10 08:01:51;;;;;;;38.75;34.67;;;;;;;14.49;100.00;100848.44;5095263;28;20026;-45
2022/09/10 08:04:16;;;;;;;43.83;37.40;;;;;;;14.58;100.00;100852.03;5094906;28;20108;-44
2022/09/10 08:06:42;;;;;;;45.60;38.33;;;;;;;14.63;100.00;100860.72;5093975;28;20020;-44
2022/09/10 08:09:07;;;;;;;44.60;37.97;;;;;;;14.69;100.00;100858.22;5094665;28;20375;-50
2022/09/10 08:11:33;;;;;;;41.58;36.33;;;;;;;14.78;100.00;100860.97;5095013;28;20095;-44
2022/09/10 08:13:59;;;;;;;42.60;38.20;;;;;;;14.89;100.00;100860.22;5095246;28;20016;-46
2022/09/10 08:16:26;;;;;;;38.53;34.63;;;;;;;14.96;100.00;100862.03;5094298;28;20036;-46
2022/09/10 08:18:56;;;;;;;41.35;37.05;;;;;;;15.12;100.00;100863.94;5094900;28;20099;-45
2022/09/10 08:21:23;;;;;;;38.65;34.67;;;;;;;15.24;100.00;100864.94;5097977;28;20059;-49
2022/09/10 08:23:51;;;;;;;40.93;36.63;;;;;;;15.35;100.00;100873.72;5094662;28;20081;-46
2022/09/10 08:26:16;;;;;;;36.67;33.08;;;;;;;15.42;100.00;100875.50;5094624;28;20098;-44
2022/09/10 08:28:46;;;;;;;37.88;33.88;;;;;;;15.46;100.00;100884.19;5094358;28;20425;-46
2022/09/10 08:31:11;;;;;;;37.60;33.75;;;;;;;15.50;100.00;100880.78;5094679;28;20024;-49
2022/09/10 08:33:38;;;;;;;37.10;33.33;;;;;;;15.57;100.00;100892.09;5094388;28;20020;-47
2022/09/10 08:36:06;;;;;;;36.17;32.40;;;;;;;15.61;100.00;100896.47;5093889;28;20020;-46
2022/09/10 08:38:37;;;;;;;36.13;32.13;;;;;;;15.67;100.00;100891.31;5099811;28;20047;-46
2022/09/10 08:41:40;;;;;;;34.75;31.00;;;;;;;15.84;100.00;100893.25;5112070;28;20062;-49
2022/09/10 08:44:08;;;;;;;36.17;32.42;;;;;;;16.03;100.00;100895.13;5114009;28;20054;-45
2022/09/10 08:46:40;;;;;;;33.03;29.67;;;;;;;16.12;100.00;100900.38;5095127;28;20470;-47
2022/09/10 08:49:41;;;;;;;33.40;29.70;;;;;;;16.20;100.00;100904.78;5094296;28;20019;-48
2022/09/10 08:52:20;;;;;;;29.95;27.08;;;;;;;16.40;100.00;100905.78;5113713;28;20088;-45
2022/09/10 08:55:01;;;;;;;28.08;25.38;;;;;;;16.40;100.00;100904.94;5114447;28;20052;-46
2022/09/10 08:57:35;;;;;;;23.88;21.23;;;;;;;16.38;100.00;100907.50;5114106;28;20031;-45
2022/09/10 09:00:02;;;;;;;24.15;21.88;;;;;;;16.29;100.00;100915.25;5114304;28;20035;-47
2022/09/10 09:02:44;;;;;;;24.33;21.80;;;;;;;16.11;100.00;100914.28;5114528;28;20026;-45
2022/09/10 09:05:18;;;;;;;19.55;17.63;;;;;;;15.90;100.00;100919.28;5106231;28;20301;-45
2022/09/10 09:07:45;;;;;;;23.08;20.67;;;;;;;15.83;100.00;100922.69;5109890;28;20038;-45
2022/09/10 09:10:17;;;;;;;;;;;;;;;15.94;100.00;100926.25;5114825;28;20066;-46
2022/09/10 09:13:13;;;;;;;21.00;18.83;;;;;;;15.77;100.00;100924.34;5113947;28;19957;-45
2022/09/10 09:16:20;;;;;;;24.98;21.73;;;;;;;15.67;100.00;100932.88;5113936;28;20031;-46
2022/09/10 09:19:06;;;;;;;;;;;;;;;15.69;100.00;100926.00;5093424;28;20039;-46
2022/09/10 09:21:38;;;;;;;24.27;21.80;;;;;;;15.63;100.00;100925.94;5093571;28;19969;-44
2022/09/10 09:24:21;;;;;;;26.52;23.83;;;;;;;15.64;100.00;100930.28;5093679;28;20478;-44
2022/09/10 09:26:48;;;;;;;26.83;23.98;;;;;;;15.89;100.00;100925.34;5093347;28;20138;-45
2022/09/10 09:29:54;;;;;;;28.08;23.05;;;;;;;15.92;100.00;100927.94;5093445;28;20099;-45
2022/09/10 09:32:21;;;;;;;24.65;22.15;;;;;;;15.99;100.00;100934.97;5059599;28;20043;-46
2022/09/10 09:35:22;;;;;;;28.25;23.13;;;;;;;16.08;100.00;100932.44;5093497;28;20039;-47
2022/09/10 09:38:09;;;;;;;25.73;23.05;;;;;;;16.20;100.00;100936.00;5093575;28;20042;-44
2022/09/10 09:40:48;;;;;;;25.27;22.55;;;;;;;16.24;100.00;100935.16;5111812;28;20078;-46
2022/09/10 09:43:36;;;;;;;24.60;22.15;;;;;;;16.43;100.00;100943.97;5109052;28;20031;-47
2022/09/10 09:46:06;;;;;;;26.10;21.58;;;;;;;16.53;100.00;100932.75;5068436;28;20035;-46
2022/09/10 09:48:37;;;;;;;23.55;20.17;;;;;;;16.45;100.00;100939.66;5091668;28;20040;-45
2022/09/10 09:51:03;;;;;;;24.75;21.98;;;;;;;16.60;100.00;100934.56;5093041;28;20050;-45
2022/09/10 09:53:29;;;;;;;22.23;19.77;;;;;;;16.58;100.00;100932.81;5092813;28;20028;-46
2022/09/10 09:55:59;;;;;;;23.75;19.73;;;;;;;16.74;100.00;100934.59;5092937;28;20479;-44
2022/09/10 09:58:25;;;;;;;22.00;18.80;;;;;;;16.98;100.00;100930.44;5093206;28;20085;-45
2022/09/10 10:01:03;;;;;;;19.92;16.27;;;;;;;17.17;100.00;100926.19;5092788;28;20048;-45
2022/09/10 10:03:52;;;;;;;24.08;15.65;;;;;;;17.31;100.00;100918.38;5092772;28;20123;-44
2022/09/10 10:06:21;;;;;;;18.92;15.05;;;;;;;17.84;100.00;100923.72;5092875;28;20425;-45
2022/09/10 10:09:05;;;;;;;17.25;14.20;;;;;;;17.89;100.00;100929.78;5092699;28;20097;-45
2022/09/10 10:11:44;;;;;;;16.45;12.35;;;;;;;17.86;100.00;100938.47;5092704;28;20085;-45
2022/09/10 10:14:12;;;;;;;14.98;12.38;;;;;;;17.88;100.00;100946.28;5092610;28;20095;-45
2022/09/10 10:16:37;;;;;;;14.23;12.25;;;;;;;17.96;100.00;100951.56;5093011;28;20024;-45
2022/09/10 10:19:33;;;;;;;16.95;11.40;;;;;;;18.06;100.00;100954.19;5092755;28;20032;-46
2022/09/10 10:22:19;;;;;;;17.37;11.60;;;;;;;18.11;100.00;100956.78;5092391;28;20472;-46
2022/09/10 10:24:46;;;;;;;13.50;10.00;;;;;;;18.32;100.00;100953.31;5097216;28;20028;-45
2022/09/10 10:27:31;;;;;;;14.45;10.00;;;;;;;18.29;100.00;100948.06;5092407;28;20403;-45
2022/09/10 10:30:00;;;;;;;14.57;8.77;;;;;;;18.18;100.00;100940.28;5093054;28;20028;-46
2022/09/10 10:32:56;;;;;;;9.88;8.68;;;;;;;18.09;100.00;100946.34;5096710;28;20467;-44
2022/09/10 10:35:45;;;;;;;14.55;10.20;;;;;;;17.87;100.00;100954.97;5096456;28;20035;-44
2022/09/10 10:38:32;;;;;;;13.35;9.23;;;;;;;17.58;100.00;100959.31;5104678;28;20046;-44
2022/09/10 10:41:25;;;;;;;13.60;10.02;;;;;;;17.27;100.00;100963.53;5109619;28;20030;-47
2022/09/10 10:44:05;;;;;;;13.98;10.70;;;;;;;17.13;100.00;100960.88;5106178;28;20224;-45
2022/09/10 10:47:08;;;;;;;17.25;10.43;;;;;;;16.97;100.00;100970.34;5099357;28;20383;-43
2022/09/10 10:49:50;;;;;;;18.50;11.15;;;;;;;16.74;100.00;100967.59;5103117;28;20031;-45
2022/09/10 10:52:27;;;;;;;15.23;11.50;;;;;;;16.62;100.00;100968.38;5116840;27;20024;-46
2022/09/10 10:55:19;;;;;;;16.08;12.88;;;;;;;16.55;100.00;100966.59;5117179;28;20028;-43
2022/09/10 10:58:19;;;;;;;16.33;13.32;;;;;;;16.43;100.00;100963.03;5108444;28;20479;-43
2022/09/10 11:00:57;;;;;;;18.92;13.32;;;;;;;16.37;100.00;100965.63;5104433;28;20097;-45
2022/09/10 11:03:50;;;;;;;20.85;14.88;;;;;;;16.36;100.00;100971.66;5116199;28;20095;-44
2022/09/10 11:06:22;;;;;;;20.23;14.73;;;;;;;16.28;100.00;100981.13;5080774;28;20096;-44
2022/09/10 11:08:56;;;;;;;22.58;13.35;;;;;;;16.25;100.00;100983.72;5116972;28;20034;-44
2022/09/10 11:11:44;;;;;;;20.25;12.98;;;;;;;16.25;100.00;100981.09;5116073;28;20069;-43
2022/09/10 11:14:34;;;;;;;21.10;13.30;;;;;;;16.23;100.00;100975.00;5106719;28;20024;-44
2022/09/10 11:17:25;;;;;;;13.63;9.93;;;;;;;16.19;100.00;100976.75;5097653;28;20396;-48